This is the latest recevied weather packets stored in our database for station/object 5B4ALR-13. If no packets are shown the sender has not sent any weather packets the latest 10 day(s).
| Time | Temp. | Humidity | Pressure | Rain* | Wind** | Luminosity | Snow |
|---|---|---|---|---|---|---|---|
| 1777559462 | 25.56° C | 46% | 1013.7 hPa | 0 mm | - | - | - |
| 1777558862 | 25.56° C | 42% | 1013.8 hPa | 0 mm | - | - | - |
| 1777558262 | 25.56° C | 40% | 1013.9 hPa | 0 mm | - | - | - |
| 1777557662 | 25.56° C | 42% | 1013.9 hPa | 0 mm | - | - | - |
| 1777557062 | 26.11° C | 40% | 1013.9 hPa | 0 mm | - | - | - |
| 1777556463 | 25.56° C | 42% | 1013.9 hPa | 0 mm | - | - | - |
| 1777555862 | 26.11° C | 43% | 1014 hPa | 0 mm | - | - | - |
| 1777555262 | 26.11° C | 42% | 1014 hPa | 0 mm | - | - | - |
| 1777554662 | 25.56° C | 43% | 1014.2 hPa | 0 mm | - | - | - |
| 1777554062 | 25.56° C | 44% | 1014 hPa | 0 mm | - | - | - |
| 1777553462 | 26.11° C | 43% | 1014.2 hPa | 0 mm | - | - | - |
| 1777552862 | 26.11° C | 42% | 1014.3 hPa | 0 mm | - | - | - |
| 1777552262 | 26.11° C | 43% | 1014.5 hPa | 0 mm | - | - | - |
| 1777551662 | 26.11° C | 44% | 1014.6 hPa | 0 mm | - | - | - |
| 1777551062 | 26.67° C | 44% | 1014.7 hPa | 0 mm | - | - | - |
| 1777550462 | 26.67° C | 44% | 1014.8 hPa | 0 mm | - | - | - |
| 1777549862 | 26.67° C | 44% | 1014.9 hPa | 0 mm | - | - | - |
| 1777549262 | 26.67° C | 44% | 1015.1 hPa | 0 mm | - | - | - |
| 1777548662 | 25.56° C | 48% | 1015.2 hPa | 0 mm | - | - | - |
| 1777548062 | 25.56° C | 48% | 1015.3 hPa | 0 mm | - | - | - |
| 1777547462 | 25.56° C | 49% | 1015.4 hPa | 0 mm | - | - | - |
| 1777546862 | 25.56° C | 50% | 1015.6 hPa | 0 mm | - | - | - |
| 1777546262 | 25.56° C | 53% | 1015.7 hPa | 0 mm | - | - | - |
| 1777545662 | 25° C | 54% | 1015.8 hPa | 0 mm | - | - | - |
| 1777545062 | 26.11° C | 52% | 1015.8 hPa | 0 mm | - | - | - |
* Rain latest hour (hover to see other rain measurements)
** Current wind speed in m/s (hover to see current wind gust speed)